Time;durP1;ratioP1;P1;durP2;ratioP2;P2;SDS_P1;SDS_P2;PMS_P1;PMS_P2;Temp;Humidity;BMP_temperature;BMP_pressure;BME280_temperature;BME280_humidity;BME280_pressure;Samples;Min_cycle;Max_cycle;Signal;HPM_P1;HPM_P2
2024/02/29 00:02:13;;;;;;;19.30;4.17;;;;;;;0.46;100.00;100267.88;4981981;28;20050;-68
2024/02/29 00:04:39;;;;;;;14.10;4.23;;;;;;;0.39;100.00;100253.47;4992222;28;20050;-69
2024/02/29 00:07:05;;;;;;;14.67;4.37;;;;;;;0.38;100.00;100253.53;4922186;29;20058;-67
2024/02/29 00:09:31;;;;;;;10.77;4.13;;;;;;;0.36;100.00;100258.00;4890298;29;20065;-67
2024/02/29 00:11:59;;;;;;;13.23;4.10;;;;;;;0.33;100.00;100255.53;4905166;29;20122;-67
2024/02/29 00:14:25;;;;;;;10.43;4.03;;;;;;;0.30;100.00;100263.53;4936491;29;20047;-68
2024/02/29 00:16:51;;;;;;;11.40;4.83;;;;;;;0.27;100.00;100261.94;4889411;29;20051;-68
2024/02/29 00:19:17;;;;;;;8.83;4.23;;;;;;;0.27;100.00;100259.31;4867631;29;20426;-68
2024/02/29 00:21:44;;;;;;;10.77;3.90;;;;;;;0.31;100.00;100271.28;4876662;29;20080;-68
2024/02/29 00:24:10;;;;;;;9.20;4.37;;;;;;;0.30;100.00;100251.34;4859237;29;20057;-72
2024/02/29 00:26:37;;;;;;;9.83;4.23;;;;;;;0.33;100.00;100247.72;4845311;29;20063;-69
2024/02/29 00:29:03;;;;;;;8.90;4.40;;;;;;;0.24;100.00;100242.97;4876527;29;20063;-70
2024/02/29 00:31:29;;;;;;;12.47;4.37;;;;;;;0.29;100.00;100259.25;4876561;29;20045;-69
2024/02/29 00:33:56;;;;;;;13.73;4.13;;;;;;;0.37;100.00;100254.47;4862597;29;20056;-69
2024/02/29 00:36:21;;;;;;;8.37;4.40;;;;;;;0.34;100.00;100247.63;4926252;29;20060;-70
2024/02/29 00:38:49;;;;;;;13.67;4.17;;;;;;;0.28;100.00;100244.50;4883084;29;20047;-69
2024/02/29 00:41:15;;;;;;;13.00;3.80;;;;;;;0.31;100.00;100244.34;4899629;29;20126;-69
2024/02/29 00:43:42;;;;;;;8.30;4.07;;;;;;;0.29;100.00;100246.19;4931444;29;20087;-70
2024/02/29 00:46:09;;;;;;;10.97;4.97;;;;;;;0.25;100.00;100242.06;4900914;29;20460;-70
2024/02/29 00:48:36;;;;;;;10.13;4.60;;;;;;;0.26;100.00;100233.28;4930487;29;20181;-70
2024/02/29 00:51:05;;;;;;;9.40;4.60;;;;;;;0.25;100.00;100242.06;4961810;28;20542;-70
2024/02/29 00:53:31;;;;;;;10.40;4.30;;;;;;;0.18;100.00;100236.28;5008139;28;20542;-70
2024/02/29 00:55:56;;;;;;;11.47;4.00;;;;;;;0.16;100.00;100235.53;5008588;28;20101;-70
2024/02/29 00:58:22;;;;;;;8.93;4.30;;;;;;;0.13;100.00;100238.28;5025997;28;20044;-69
2024/02/29 01:00:48;;;;;;;10.90;5.00;;;;;;;0.18;100.00;100241.53;5039693;28;20048;-70
2024/02/29 01:03:14;;;;;;;8.30;4.30;;;;;;;0.21;100.00;100241.34;5050865;28;20041;-71
2024/02/29 01:05:40;;;;;;;8.97;4.20;;;;;;;0.20;100.00;100226.59;5067505;28;20049;-70
2024/02/29 01:08:06;;;;;;;8.93;5.23;;;;;;;0.19;100.00;100237.97;5034282;28;20548;-70
2024/02/29 01:10:33;;;;;;;7.67;4.33;;;;;;;0.22;100.00;100227.38;5017795;28;20573;-70
2024/02/29 01:12:59;;;;;;;11.03;4.27;;;;;;;0.25;100.00;100221.97;5050056;28;20106;-70
2024/02/29 01:15:26;;;;;;;13.83;4.80;;;;;;;0.22;100.00;100229.13;4950671;28;20049;-70
2024/02/29 01:17:52;;;;;;;11.03;4.30;;;;;;;0.22;100.00;100222.16;4997906;28;20048;-70
2024/02/29 01:20:18;;;;;;;9.10;4.60;;;;;;;0.21;100.00;100217.00;4948843;28;20061;-70
2024/02/29 01:22:46;;;;;;;12.90;5.30;;;;;;;0.27;100.00;100221.91;4981485;28;20107;-71
2024/02/29 01:25:12;;;;;;;9.27;4.70;;;;;;;0.22;100.00;100216.06;4982181;28;20515;-70
2024/02/29 01:27:39;;;;;;;13.40;4.57;;;;;;;0.22;100.00;100218.69;5014139;28;20139;-70
2024/02/29 01:30:06;;;;;;;10.00;4.63;;;;;;;0.19;100.00;100201.41;4981584;28;20053;-70
2024/02/29 01:32:32;;;;;;;10.10;4.10;;;;;;;0.27;100.00;100211.47;4997760;28;20045;-69
2024/02/29 01:34:59;;;;;;;13.03;5.67;;;;;;;0.24;100.00;100201.16;4970413;28;20511;-69
2024/02/29 01:37:25;;;;;;;9.83;4.47;;;;;;;0.23;100.00;100205.53;4966440;28;20133;-69
2024/02/29 01:39:51;;;;;;;10.80;4.77;;;;;;;0.20;100.00;100199.66;4966458;28;20131;-69
2024/02/29 01:42:16;;;;;;;7.50;4.40;;;;;;;0.21;100.00;100204.78;4979603;28;20073;-69
2024/02/29 01:44:54;;;;;;;7.20;4.17;;;;;;;0.30;100.00;100206.94;4996056;28;20400;-69
2024/02/29 01:47:24;;;;;;;12.57;4.63;;;;;;;0.30;100.00;100204.31;4978778;28;20053;-69
2024/02/29 01:49:53;;;;;;;8.10;4.20;;;;;;;0.22;100.00;100206.47;4992038;28;20052;-69
2024/02/29 01:52:20;;;;;;;11.93;4.50;;;;;;;0.17;100.00;100210.25;5031473;28;20074;-69
2024/02/29 01:54:46;;;;;;;8.70;4.30;;;;;;;0.16;100.00;100203.31;5016187;28;20045;-70
2024/02/29 01:57:12;;;;;;;6.47;4.17;;;;;;;0.19;100.00;100206.63;5001558;28;20049;-68
2024/02/29 01:59:39;;;;;;;10.20;4.37;;;;;;;0.20;100.00;100191.81;5001433;28;20063;-69
2024/02/29 02:02:05;;;;;;;7.67;4.23;;;;;;;0.24;100.00;100206.38;5000840;28;20095;-70
2024/02/29 02:04:31;;;;;;;10.20;4.93;;;;;;;0.24;100.00;100195.94;5049926;28;20048;-70
2024/02/29 02:06:58;;;;;;;6.97;3.97;;;;;;;0.28;100.00;100194.88;5000626;28;20391;-69
2024/02/29 02:09:25;;;;;;;7.40;4.10;;;;;;;0.35;100.00;100185.78;5017069;28;20114;-70
2024/02/29 02:11:50;;;;;;;10.10;3.63;;;;;;;0.26;100.00;100191.50;5017402;28;20056;-68
2024/02/29 02:14:16;;;;;;;10.57;5.00;;;;;;;0.30;100.00;100188.63;4978800;28;20369;-71
2024/02/29 02:16:43;;;;;;;9.13;4.20;;;;;;;0.24;100.00;100188.09;4996838;28;20053;-68
2024/02/29 02:19:12;;;;;;;9.63;3.97;;;;;;;0.32;100.00;100178.97;4995849;28;20073;-68
2024/02/29 02:21:40;;;;;;;9.43;4.33;;;;;;;0.29;100.00;100186.09;4979887;28;20180;-68
2024/02/29 02:24:06;;;;;;;8.93;4.20;;;;;;;0.22;100.00;100179.50;4964032;28;20733;-68
2024/02/29 02:26:33;;;;;;;5.97;3.70;;;;;;;0.25;100.00;100182.81;4963948;28;20547;-69
2024/02/29 02:29:01;;;;;;;8.03;3.77;;;;;;;0.29;100.00;100165.22;4996242;28;20059;-68
2024/02/29 02:31:26;;;;;;;7.70;4.07;;;;;;;0.28;100.00;100173.97;4996227;28;20053;-69
2024/02/29 02:33:52;;;;;;;8.37;3.67;;;;;;;0.31;100.00;100174.63;4996203;28;20689;-69
2024/02/29 02:36:18;;;;;;;10.13;4.47;;;;;;;0.28;100.00;100184.44;4963921;28;20496;-69
2024/02/29 02:38:44;;;;;;;6.83;3.80;;;;;;;0.26;100.00;100175.81;4964415;28;20120;-68
2024/02/29 02:41:12;;;;;;;10.27;4.10;;;;;;;0.24;100.00;100190.72;4977094;28;20050;-68
2024/02/29 02:43:39;;;;;;;8.87;3.83;;;;;;;0.21;100.00;100183.91;4961427;28;20543;-69
2024/02/29 02:46:05;;;;;;;7.23;3.77;;;;;;;0.21;100.00;100180.44;4993338;28;20180;-69
2024/02/29 02:48:31;;;;;;;7.50;3.73;;;;;;;0.18;100.00;100175.38;4983640;28;20459;-69
2024/02/29 02:50:56;;;;;;;10.20;3.90;;;;;;;0.15;100.00;100171.16;4999507;28;20053;-71
2024/02/29 02:53:22;;;;;;;10.10;4.20;;;;;;;0.17;100.00;100179.75;5000612;28;20083;-69
2024/02/29 02:55:50;;;;;;;8.70;4.33;;;;;;;0.13;100.00;100185.22;5000296;28;20080;-68
2024/02/29 02:58:16;;;;;;;7.17;3.57;;;;;;;0.16;100.00;100180.69;4967911;28;20179;-68
2024/02/29 03:00:42;;;;;;;7.93;3.90;;;;;;;0.17;100.00;100184.97;5002518;28;20076;-69
2024/02/29 03:03:08;;;;;;;10.07;3.80;;;;;;;0.10;100.00;100195.81;5018839;28;20378;-69
2024/02/29 03:05:34;;;;;;;7.33;4.30;;;;;;;0.12;100.00;100189.59;5019986;28;20040;-69
2024/02/29 03:08:01;;;;;;;7.90;3.90;;;;;;;0.19;100.00;100180.50;5020103;28;20476;-69
2024/02/29 03:10:28;;;;;;;9.83;4.00;;;;;;;0.24;100.00;100188.09;5003833;28;20458;-67
2024/02/29 03:12:54;;;;;;;5.93;3.60;;;;;;;0.17;100.00;100181.53;5020246;28;20048;-69
2024/02/29 03:15:21;;;;;;;7.93;4.07;;;;;;;0.16;100.00;100175.44;5023518;28;20475;-69
2024/02/29 03:17:47;;;;;;;7.83;3.43;;;;;;;0.15;100.00;100189.44;5039853;28;20041;-69
2024/02/29 03:20:13;;;;;;;8.90;4.57;;;;;;;0.14;100.00;100184.31;5020476;28;20147;-69
2024/02/29 03:22:40;;;;;;;7.97;3.90;;;;;;;0.17;100.00;100176.31;5033513;28;20162;-69
2024/02/29 03:25:06;;;;;;;7.40;3.33;;;;;;;0.16;100.00;100177.22;5039652;28;20056;-69
2024/02/29 03:27:32;;;;;;;6.80;3.97;;;;;;;0.13;100.00;100177.38;5055735;28;20058;-68
2024/02/29 03:30:02;;;;;;;8.57;3.70;;;;;;;0.15;100.00;100179.00;5018924;28;20061;-69
2024/02/29 03:32:30;;;;;;;8.57;3.70;;;;;;;0.21;100.00;100177.81;5004011;28;20564;-68
2024/02/29 03:34:57;;;;;;;10.37;3.43;;;;;;;0.23;100.00;100162.94;5002797;28;20098;-69
2024/02/29 03:37:24;;;;;;;11.07;3.90;;;;;;;0.23;100.00;100176.81;5002629;28;20040;-68
2024/02/29 03:39:51;;;;;;;6.47;3.40;;;;;;;0.23;100.00;100176.81;5035187;28;20137;-71
2024/02/29 03:42:17;;;;;;;6.97;3.47;;;;;;;0.16;100.00;100169.38;5037305;28;20056;-68
2024/02/29 03:44:45;;;;;;;8.53;4.00;;;;;;;0.15;100.00;100167.69;5003167;28;20048;-68
2024/02/29 03:47:12;;;;;;;7.40;3.77;;;;;;;0.14;100.00;100169.47;5002019;28;20045;-68
2024/02/29 03:49:40;;;;;;;8.43;3.90;;;;;;;0.12;100.00;100168.72;4985758;28;20045;-68
2024/02/29 03:52:06;;;;;;;8.43;4.03;;;;;;;0.12;100.00;100165.25;5001885;28;20076;-68
2024/02/29 03:54:32;;;;;;;8.80;3.70;;;;;;;0.13;100.00;100149.50;5017782;28;20504;-69
2024/02/29 03:56:58;;;;;;;7.40;3.63;;;;;;;0.13;100.00;100138.19;5001935;28;20430;-70
2024/02/29 03:59:25;;;;;;;9.07;3.70;;;;;;;0.14;100.00;100143.34;5001806;28;20063;-69
2024/02/29 04:01:53;;;;;;;8.67;4.00;;;;;;;0.24;100.00;100160.22;5018670;28;20558;-72
2024/02/29 04:04:19;;;;;;;6.63;4.00;;;;;;;0.22;100.00;100153.38;5018066;28;20044;-70
2024/02/29 04:06:46;;;;;;;11.03;4.10;;;;;;;0.28;100.00;100146.06;5018629;28;20080;-69
2024/02/29 04:09:14;;;;;;;11.57;3.50;;;;;;;0.25;100.00;100148.03;5019553;28;20049;-68
2024/02/29 04:11:40;;;;;;;5.77;3.30;;;;;;;0.24;100.00;100138.47;5004910;28;20048;-69
2024/02/29 04:14:06;;;;;;;6.93;3.33;;;;;;;0.22;100.00;100146.41;4981285;28;20140;-68
2024/02/29 04:16:36;;;;;;;5.97;3.63;;;;;;;0.31;100.00;100142.47;4947169;28;20046;-68
2024/02/29 04:19:05;;;;;;;9.20;3.63;;;;;;;0.26;100.00;100140.09;4962891;28;20045;-70
2024/02/29 04:21:32;;;;;;;10.05;3.58;;;;;;;0.27;100.00;100133.94;4963087;28;20177;-71
2024/02/29 04:24:05;;;;;;;5.50;3.37;;;;;;;0.28;100.00;100134.81;4995356;28;20132;-71
2024/02/29 04:26:31;;;;;;;6.97;3.40;;;;;;;0.22;100.00;100129.88;4981073;28;20119;-74
2024/02/29 04:28:57;;;;;;;5.57;2.93;;;;;;;0.28;100.00;100138.22;4978500;28;20084;-73
2024/02/29 04:31:23;;;;;;;8.00;3.90;;;;;;;0.26;100.00;100131.41;4972027;28;20054;-67
2024/02/29 04:33:50;;;;;;;7.33;3.47;;;;;;;0.32;100.00;100138.94;4972007;28;20146;-68
2024/02/29 04:36:20;;;;;;;9.63;4.17;;;;;;;0.31;100.00;100147.69;4955672;28;20093;-69
2024/02/29 04:38:49;;;;;;;6.20;3.43;;;;;;;0.28;100.00;100135.63;4955473;28;20043;-67
2024/02/29 04:41:16;;;;;;;6.93;3.77;;;;;;;0.34;100.00;100139.69;4980995;28;20053;-68
2024/02/29 04:43:43;;;;;;;8.80;3.10;;;;;;;0.40;100.00;100147.19;4971383;28;20105;-67
2024/02/29 04:46:09;;;;;;;5.40;3.00;;;;;;;0.44;100.00;100143.47;4958030;28;20045;-68
2024/02/29 04:48:35;;;;;;;5.97;3.57;;;;;;;0.52;100.00;100142.16;4980217;28;20041;-67
2024/02/29 04:51:01;;;;;;;7.63;3.30;;;;;;;0.53;100.00;100136.00;4971753;28;20041;-65
2024/02/29 04:53:27;;;;;;;8.43;3.60;;;;;;;0.57;100.00;100154.97;5002753;28;20045;-65
2024/02/29 04:55:54;;;;;;;5.00;3.03;;;;;;;0.53;100.00;100149.06;4969093;28;20412;-65
2024/02/29 04:58:20;;;;;;;6.00;3.53;;;;;;;0.52;100.00;100157.00;4966442;28;20062;-67
2024/02/29 05:00:46;;;;;;;4.47;3.00;;;;;;;0.55;100.00;100148.97;4972690;28;20543;-71
2024/02/29 05:03:12;;;;;;;5.03;3.30;;;;;;;0.55;100.00;100152.44;5013130;28;20176;-70
2024/02/29 05:05:39;;;;;;;8.80;3.30;;;;;;;0.49;100.00;100163.22;4994563;28;20038;-70
2024/02/29 05:08:05;;;;;;;12.60;3.70;;;;;;;0.54;100.00;100144.69;4978017;28;20069;-73
2024/02/29 05:10:31;;;;;;;6.00;3.07;;;;;;;0.64;100.00;100161.53;5018548;28;20041;-72
2024/02/29 05:12:57;;;;;;;10.53;3.67;;;;;;;0.69;100.00;100154.31;4989072;28;20049;-73
2024/02/29 05:15:23;;;;;;;7.13;3.03;;;;;;;0.68;100.00;100170.91;5004093;28;20049;-75
2024/02/29 05:17:49;;;;;;;6.57;3.40;;;;;;;0.69;100.00;100173.44;5005090;28;20041;-80
2024/02/29 05:20:23;;;;;;;6.50;3.20;;;;;;;0.88;100.00;100176.72;5022722;28;20041;-76
2024/02/29 05:22:53;;;;;;;8.53;3.53;;;;;;;0.82;100.00;100169.22;5024114;28;20050;-72
2024/02/29 05:25:20;;;;;;;7.60;3.50;;;;;;;0.83;100.00;100173.53;4993757;28;20130;-75
2024/02/29 05:27:46;;;;;;;6.40;3.43;;;;;;;0.86;100.00;100156.84;5018858;28;20045;-73
2024/02/29 05:30:13;;;;;;;7.77;3.67;;;;;;;0.88;100.00;100173.25;5008697;28;20042;-74
2024/02/29 05:32:40;;;;;;;6.63;3.43;;;;;;;0.88;100.00;100171.50;4988847;28;20052;-75
2024/02/29 05:35:07;;;;;;;11.53;3.63;;;;;;;0.85;100.00;100171.69;5049933;28;20056;-74
2024/02/29 05:37:33;;;;;;;7.70;3.57;;;;;;;0.87;100.00;100159.38;5049915;28;20055;-74
2024/02/29 05:39:58;;;;;;;6.03;3.40;;;;;;;0.84;100.00;100162.16;5054663;28;20068;-74
2024/02/29 05:42:26;;;;;;;16.13;5.33;;;;;;;0.96;100.00;100165.84;5054102;28;20451;-78
2024/02/29 05:44:52;;;;;;;7.57;3.57;;;;;;;1.01;100.00;100161.22;5034971;28;20037;-80
2024/02/29 05:47:18;;;;;;;10.33;3.60;;;;;;;0.93;100.00;100156.41;5052551;28;20383;-77
2024/02/29 05:49:44;;;;;;;5.73;3.73;;;;;;;1.00;100.00;100162.97;5042221;28;20049;-82
2024/02/29 05:52:11;;;;;;;9.03;4.00;;;;;;;1.00;100.00;100165.59;5091956;28;20127;-77
2024/02/29 05:54:36;;;;;;;9.60;3.93;;;;;;;1.05;100.00;100154.88;5074412;28;20079;-79
2024/02/29 05:57:02;;;;;;;7.93;3.57;;;;;;;1.13;100.00;100157.91;5037478;28;20124;-79
2024/02/29 05:59:28;;;;;;;10.67;3.80;;;;;;;1.23;100.00;100148.63;5055739;28;20048;-71
2024/02/29 06:01:54;;;;;;;12.47;3.87;;;;;;;1.28;100.00;100152.66;5056250;28;20044;-76
2024/02/29 06:04:20;;;;;;;7.50;4.13;;;;;;;1.34;100.00;100159.28;5088224;28;20548;-76
2024/02/29 06:06:47;;;;;;;6.20;3.53;;;;;;;1.38;100.00;100155.59;5067525;28;20057;-76
2024/02/29 06:09:14;;;;;;;8.57;3.63;;;;;;;1.43;100.00;100151.75;5051923;28;20076;-73
2024/02/29 06:11:41;;;;;;;6.90;3.93;;;;;;;1.46;100.00;100156.00;5051757;28;20113;-74
2024/02/29 06:14:07;;;;;;;8.50;4.00;;;;;;;1.49;100.00;100154.03;5041554;28;20203;-74
2024/02/29 06:16:32;;;;;;;6.50;3.47;;;;;;;1.51;100.00;100156.56;4998380;28;20504;-74
2024/02/29 06:18:59;;;;;;;8.23;3.73;;;;;;;1.54;100.00;100154.63;5015444;28;20373;-72
2024/02/29 06:21:25;;;;;;;9.13;4.20;;;;;;;1.59;100.00;100154.34;4998091;28;20095;-74
2024/02/29 06:23:53;;;;;;;17.33;3.97;;;;;;;1.69;100.00;100139.78;5032497;28;20049;-78
2024/02/29 06:26:19;;;;;;;11.83;3.80;;;;;;;1.77;100.00;100153.25;5032421;28;20116;-81
2024/02/29 06:28:46;;;;;;;9.17;3.60;;;;;;;1.78;100.00;100154.97;5032097;28;20136;-73
2024/02/29 06:31:12;;;;;;;9.27;4.00;;;;;;;1.74;100.00;100145.59;5031424;28;20037;-73
2024/02/29 06:33:38;;;;;;;10.53;4.00;;;;;;;1.86;100.00;100159.75;5032113;28;20060;-74
2024/02/29 06:36:04;;;;;;;14.70;3.90;;;;;;;1.97;100.00;100155.53;4969030;28;20462;-73
2024/02/29 06:38:31;;;;;;;11.80;4.33;;;;;;;2.02;100.00;100171.81;5001395;28;20041;-73
2024/02/29 06:40:58;;;;;;;10.13;4.30;;;;;;;2.08;100.00;100154.88;5034890;28;20111;-77
2024/02/29 06:43:23;;;;;;;6.70;3.60;;;;;;;2.06;100.00;100157.59;5034713;28;20099;-74
2024/02/29 06:45:50;;;;;;;11.83;5.23;;;;;;;2.20;100.00;100165.47;5017574;28;20045;-73
2024/02/29 06:48:17;;;;;;;11.53;3.90;;;;;;;2.32;100.00;100161.28;5017293;28;20042;-74
2024/02/29 06:50:43;;;;;;;9.47;4.20;;;;;;;2.37;100.00;100167.91;5034619;28;20128;-76
2024/02/29 06:53:09;;;;;;;14.17;4.03;;;;;;;2.41;100.00;100176.44;5034656;28;20137;-77
2024/02/29 06:55:36;;;;;;;12.53;4.90;;;;;;;2.41;100.00;100177.28;5004480;28;20051;-75
2024/02/29 06:58:05;;;;;;;5.77;3.67;;;;;;;2.59;100.00;100172.69;5001116;28;20444;-70
2024/02/29 07:00:32;;;;;;;9.07;4.50;;;;;;;2.61;100.00;100179.53;5001059;28;20479;-72
2024/02/29 07:03:00;;;;;;;11.37;4.30;;;;;;;2.59;100.00;100178.78;5001165;28;20041;-74
2024/02/29 07:05:26;;;;;;;10.50;4.00;;;;;;;2.69;100.00;100182.50;4984880;28;20400;-75
2024/02/29 07:07:54;;;;;;;8.40;4.00;;;;;;;2.72;100.00;100173.63;5017897;28;20037;-74
2024/02/29 07:10:42;;;;;;;10.83;4.40;;;;;;;2.79;100.00;100175.75;5019414;28;20132;-73
2024/02/29 07:13:08;;;;;;;6.40;4.03;;;;;;;2.77;100.00;100177.63;4983951;28;20149;-71
2024/02/29 07:15:35;;;;;;;8.27;4.33;;;;;;;2.89;100.00;100157.66;5003437;28;20057;-79
2024/02/29 07:18:02;;;;;;;8.33;4.43;;;;;;;2.89;100.00;100179.47;4992879;28;20143;-72
2024/02/29 07:20:29;;;;;;;7.17;4.00;;;;;;;2.99;100.00;100164.00;4961240;28;20051;-73
2024/02/29 07:22:56;;;;;;;9.37;4.60;;;;;;;3.10;100.00;100178.13;4929217;28;20480;-74
2024/02/29 07:25:22;;;;;;;8.67;3.93;;;;;;;3.15;100.00;100168.16;4978983;28;20054;-74
2024/02/29 07:27:49;;;;;;;8.50;4.60;;;;;;;3.23;100.00;100176.38;4978126;28;20038;-73
2024/02/29 07:30:14;;;;;;;6.53;4.20;;;;;;;3.36;100.00;100174.66;4990855;28;20057;-73
2024/02/29 07:32:40;;;;;;;10.47;3.90;;;;;;;3.42;100.00;100162.91;5012361;28;20053;-74
2024/02/29 07:35:07;;;;;;;9.63;4.53;;;;;;;3.57;100.00;100168.94;4963878;28;20084;-73
2024/02/29 07:37:32;;;;;;;10.27;4.57;;;;;;;3.54;100.00;100167.34;4962852;28;20103;-76
2024/02/29 07:39:58;;;;;;;8.37;4.60;;;;;;;3.57;100.00;100174.19;4960474;28;20096;-76
2024/02/29 07:42:24;;;;;;;11.50;5.13;;;;;;;3.63;100.00;100176.41;4976478;28;20090;-75
2024/02/29 07:44:51;;;;;;;9.30;4.23;;;;;;;3.74;100.00;100168.69;4975376;28;20080;-74
2024/02/29 07:47:16;;;;;;;8.67;4.13;;;;;;;3.78;100.00;100167.50;4975942;28;20422;-75
2024/02/29 07:49:43;;;;;;;11.43;4.57;;;;;;;3.82;100.00;100164.59;4992291;28;20053;-73
2024/02/29 07:52:09;;;;;;;12.40;4.57;;;;;;;3.86;100.00;100176.56;5011312;28;20061;-74
2024/02/29 07:54:36;;;;;;;8.07;3.97;;;;;;;3.87;100.00;100159.00;4999228;28;20083;-68
2024/02/29 07:57:01;;;;;;;9.70;4.60;;;;;;;3.73;100.00;100153.84;4999395;28;20053;-73
2024/02/29 07:59:28;;;;;;;10.07;4.67;;;;;;;3.74;100.00;100171.31;4999003;28;20144;-71
2024/02/29 08:01:54;;;;;;;11.70;4.50;;;;;;;3.76;100.00;100166.75;5032194;28;20129;-74
2024/02/29 08:04:21;;;;;;;14.47;4.67;;;;;;;3.69;100.00;100162.88;4999373;28;20084;-72
2024/02/29 08:06:47;;;;;;;13.47;5.00;;;;;;;3.57;100.00;100164.53;5014829;28;20106;-70
2024/02/29 08:09:13;;;;;;;8.40;4.63;;;;;;;3.66;100.00;100171.78;5010726;28;20049;-73
2024/02/29 08:11:39;;;;;;;10.33;4.83;;;;;;;3.72;100.00;100166.13;5015239;28;20065;-74
2024/02/29 08:14:05;;;;;;;8.20;4.50;;;;;;;3.71;100.00;100163.59;5008148;28;20118;-75
2024/02/29 08:16:31;;;;;;;8.53;4.53;;;;;;;3.75;100.00;100158.06;5007045;28;20139;-74
2024/02/29 08:19:01;;;;;;;7.67;4.40;;;;;;;3.82;100.00;100163.72;5027076;28;20072;-76
2024/02/29 08:21:27;;;;;;;10.77;4.70;;;;;;;3.76;100.00;100174.66;5044342;28;20056;-75
2024/02/29 08:23:53;;;;;;;16.97;5.10;;;;;;;3.85;100.00;100166.16;5053936;28;20044;-74
2024/02/29 08:26:19;;;;;;;12.43;4.73;;;;;;;3.84;100.00;100169.72;5026300;28;20194;-74
2024/02/29 08:28:45;;;;;;;10.50;4.50;;;;;;;3.88;100.00;100155.44;5007175;28;20096;-73
2024/02/29 08:31:11;;;;;;;9.03;4.90;;;;;;;3.91;100.00;100174.47;5038885;28;20133;-74
2024/02/29 08:33:38;;;;;;;10.73;4.77;;;;;;;3.89;100.00;100162.38;5038609;28;20074;-73
2024/02/29 08:36:04;;;;;;;7.60;4.57;;;;;;;3.97;100.00;100170.56;5023166;28;20040;-73
2024/02/29 08:38:33;;;;;;;7.07;4.10;;;;;;;3.96;100.00;100176.78;5039957;28;20052;-74
2024/02/29 08:41:00;;;;;;;11.57;4.70;;;;;;;4.05;100.00;100179.63;5006291;28;20046;-75
2024/02/29 08:43:26;;;;;;;9.03;4.40;;;;;;;4.14;100.00;100173.75;5055097;28;20046;-77
2024/02/29 08:45:53;;;;;;;12.03;4.70;;;;;;;4.21;100.00;100172.41;4978490;28;20088;-72
2024/02/29 08:48:19;;;;;;;15.20;5.30;;;;;;;4.31;100.00;100176.06;4994745;28;20143;-74
2024/02/29 08:50:45;;;;;;;11.37;4.17;;;;;;;4.28;100.00;100178.06;4974416;28;20069;-72
2024/02/29 08:53:11;;;;;;;8.77;4.30;;;;;;;4.51;100.00;100182.56;4927129;28;20046;-73
2024/02/29 08:55:38;;;;;;;11.60;4.70;;;;;;;4.63;100.00;100174.66;4975111;28;20154;-73
2024/02/29 08:58:04;;;;;;;10.00;4.87;;;;;;;4.76;100.00;100178.13;4942874;28;20149;-75
2024/02/29 09:00:31;;;;;;;9.27;4.80;;;;;;;5.01;100.00;100169.34;4958865;28;20065;-68
2024/02/29 09:02:57;;;;;;;7.50;4.50;;;;;;;5.12;100.00;100177.28;4958393;28;20039;-70
2024/02/29 09:05:23;;;;;;;14.77;4.67;;;;;;;5.26;100.00;100176.31;4974651;28;20092;-68
2024/02/29 09:07:51;;;;;;;12.07;5.23;;;;;;;5.47;100.00;100188.75;4926632;28;20045;-69
2024/02/29 09:10:18;;;;;;;7.80;4.40;;;;;;;5.73;99.97;100166.56;4942244;28;20201;-68
2024/02/29 09:12:44;;;;;;;7.15;4.72;;;;;;;6.00;97.92;100164.50;4958243;28;20046;-69
2024/02/29 09:15:11;;;;;;;8.07;4.40;;;;;;;6.32;95.10;100170.78;4921724;29;20410;-69
2024/02/29 09:17:37;;;;;;;9.68;5.03;;;;;;;6.54;91.53;100175.25;4935546;28;20140;-68
2024/02/29 09:20:04;;;;;;;9.73;4.72;;;;;;;6.75;87.92;100169.13;4956086;28;20129;-68
2024/02/29 09:22:30;;;;;;;8.57;4.82;;;;;;;7.02;85.38;100162.63;4988296;28;20609;-68
2024/02/29 09:24:56;;;;;;;13.57;4.80;;;;;;;7.20;83.46;100143.50;4971660;28;20046;-69
2024/02/29 09:27:22;;;;;;;7.82;4.60;;;;;;;7.41;81.54;100148.84;4987744;28;20097;-70
2024/02/29 09:29:47;;;;;;;7.60;4.93;;;;;;;7.46;79.59;100151.91;4987675;28;20140;-68
2024/02/29 09:32:13;;;;;;;8.48;4.55;;;;;;;7.34;79.33;100143.22;4971769;28;20629;-68
2024/02/29 09:34:40;;;;;;;12.55;4.63;;;;;;;7.13;79.89;100141.47;4957556;28;20050;-69
2024/02/29 09:37:07;;;;;;;10.98;4.60;;;;;;;7.10;80.34;100150.50;4974201;28;20473;-69
2024/02/29 09:39:33;;;;;;;8.85;4.50;;;;;;;7.03;79.61;100159.03;4990401;28;20050;-68
2024/02/29 09:41:59;;;;;;;7.20;4.50;;;;;;;6.96;79.73;100152.53;4975142;28;20065;-68
2024/02/29 09:44:25;;;;;;;7.80;4.75;;;;;;;7.18;80.01;100153.31;4958454;28;20057;-68
2024/02/29 09:46:51;;;;;;;10.45;4.82;;;;;;;7.29;78.28;100147.19;5037774;28;20103;-69
2024/02/29 09:49:17;;;;;;;10.90;4.20;;;;;;;7.46;76.59;100151.91;5022684;28;20099;-68
2024/02/29 09:51:46;;;;;;;11.45;5.43;;;;;;;7.58;74.47;100153.56;4993641;28;20088;-69
2024/02/29 09:54:19;;;;;;;10.80;5.78;;;;;;;7.99;74.33;100143.88;4961232;28;20050;-69
2024/02/29 09:56:46;;;;;;;10.05;4.40;;;;;;;7.85;71.85;100156.56;4977734;28;20054;-69
2024/02/29 09:59:16;;;;;;;12.40;4.75;;;;;;;7.83;71.46;100148.75;4977350;28;20053;-69
2024/02/29 10:01:44;;;;;;;9.80;4.72;;;;;;;7.91;72.09;100143.69;4993881;28;20124;-69
2024/02/29 10:04:12;;;;;;;13.00;5.00;;;;;;;7.99;70.99;100157.09;4993799;28;20064;-69
2024/02/29 10:06:41;;;;;;;13.13;5.88;;;;;;;8.07;70.17;100144.03;4978395;28;20085;-69
2024/02/29 10:09:08;;;;;;;9.93;4.55;;;;;;;8.45;69.26;100156.69;4978399;28;20442;-70
2024/02/29 10:11:41;;;;;;;8.48;4.05;;;;;;;8.29;67.39;100159.81;4963503;28;20398;-69
2024/02/29 10:14:28;;;;;;;7.40;4.40;;;;;;;8.28;67.27;100152.84;4971317;28;20057;-70
2024/02/29 10:16:54;;;;;;;8.68;4.65;;;;;;;8.15;67.46;100152.16;5025146;28;20057;-69
2024/02/29 10:19:21;;;;;;;6.13;3.90;;;;;;;8.35;67.68;100169.03;5017736;28;20494;-70
2024/02/29 10:21:47;;;;;;;13.55;4.60;;;;;;;8.51;67.74;100151.72;5052858;28;20045;-70
2024/02/29 10:24:13;;;;;;;7.80;4.50;;;;;;;8.85;66.61;100157.56;5047537;28;20072;-70
2024/02/29 10:26:41;;;;;;;9.18;4.97;;;;;;;9.08;64.96;100153.72;5024313;28;20067;-70
2024/02/29 10:29:10;;;;;;;14.63;5.10;;;;;;;9.56;62.56;100170.50;5074035;28;20409;-70
2024/02/29 10:31:36;;;;;;;6.85;4.13;;;;;;;9.74;60.02;100160.06;5040771;28;20051;-70
2024/02/29 10:34:03;;;;;;;9.63;4.72;;;;;;;9.54;59.42;100167.19;5057381;28;20079;-70
2024/02/29 10:36:31;;;;;;;11.88;5.47;;;;;;;9.14;59.74;100163.78;5040724;28;20042;-70
2024/02/29 10:38:58;;;;;;;9.00;4.25;;;;;;;8.73;60.48;100156.00;5057164;28;20487;-70
2024/02/29 10:41:31;;;;;;;11.50;4.90;;;;;;;8.14;62.89;100147.00;5040925;28;20473;-70
2024/02/29 10:44:05;;;;;;;9.50;4.60;;;;;;;7.76;65.42;100149.41;5010213;28;20490;-70
2024/02/29 10:46:33;;;;;;;11.40;4.53;;;;;;;7.49;67.43;100156.97;4968029;28;20059;-70
2024/02/29 10:49:04;;;;;;;11.18;5.05;;;;;;;7.30;69.25;100135.66;5000059;28;20057;-70
2024/02/29 10:51:40;;;;;;;10.82;5.28;;;;;;;7.01;71.37;100126.63;4983992;28;20049;-70
2024/02/29 10:54:20;;;;;;;11.32;4.80;;;;;;;6.98;73.03;100140.06;5032701;28;20492;-70
2024/02/29 10:56:48;;;;;;;14.57;5.15;;;;;;;6.89;74.53;100153.03;4960788;28;20112;-69
2024/02/29 10:59:19;;;;;;;6.78;4.65;;;;;;;6.93;76.03;100142.22;4961770;28;20069;-69
2024/02/29 11:01:47;;;;;;;7.70;4.78;;;;;;;6.90;75.72;100146.78;4954566;29;20051;-69
2024/02/29 11:04:17;;;;;;;11.95;4.80;;;;;;;6.98;75.47;100151.44;4954571;28;20533;-69
2024/02/29 11:06:47;;;;;;;11.10;5.30;;;;;;;7.14;76.24;100173.03;4938693;29;20047;-69
2024/02/29 11:09:16;;;;;;;9.02;5.47;;;;;;;7.21;75.79;100133.78;4936392;29;20047;-70
2024/02/29 11:11:45;;;;;;;12.82;4.97;;;;;;;7.19;74.74;100143.63;4937851;29;20059;-69
2024/02/29 11:14:14;;;;;;;7.43;4.82;;;;;;;7.30;73.56;100149.72;4922114;28;20170;-69
2024/02/29 11:16:44;;;;;;;11.23;4.57;;;;;;;7.50;73.22;100141.00;4938286;28;20070;-69
2024/02/29 11:19:14;;;;;;;11.27;4.60;;;;;;;7.45;72.86;100140.53;4938580;28;20397;-70
2024/02/29 11:21:40;;;;;;;10.50;4.63;;;;;;;7.29;72.31;100142.72;4962968;28;20050;-69
2024/02/29 11:24:08;;;;;;;11.63;5.10;;;;;;;7.20;73.16;100158.50;4977361;28;20481;-70